createdAt,value
2018-01-31T01:52:20.726Z,0
2018-01-31T01:52:25.323Z,0
2018-01-31T01:53:27.322Z,0
2018-01-31T01:54:30.301Z,0
2018-01-31T01:55:31.268Z,0
2018-01-31T01:56:32.527Z,0
2018-01-31T01:57:33.698Z,0.01
2018-01-31T01:58:39.067Z,0.01
2018-01-31T02:00:02.901Z,0.01
2018-01-31T02:00:34.294Z,0
2018-01-31T02:01:36.796Z,0.01
2018-01-31T02:02:37.264Z,0
2018-01-31T02:03:37.650Z,0
2018-01-31T02:04:38.627Z,0
2018-01-31T02:05:39.333Z,0
2018-01-31T02:06:40.607Z,0
2018-01-31T02:07:41.033Z,0
2018-01-31T02:08:42.213Z,0
2018-01-31T02:09:43.215Z,0
2018-01-31T02:10:45.165Z,0
2018-01-31T02:11:46.484Z,0.03
2018-01-31T02:12:46.931Z,0.03
2018-01-31T02:13:46.407Z,0.07
2018-01-31T02:14:47.647Z,0.03
2018-01-31T02:15:49.335Z,0.04
2018-01-31T02:16:50.807Z,0.01
2018-01-31T02:17:51.383Z,0.07
2018-01-31T02:18:51.411Z,0.06
2018-01-31T02:19:54.794Z,0
2018-01-31T02:20:54.893Z,0
2018-01-31T02:21:54.399Z,0.07
2018-01-31T02:22:55.361Z,0.03
2018-01-31T02:23:57.113Z,0.01
2018-01-31T02:24:59.548Z,0.01
2018-01-31T02:26:00.191Z,0.01
2018-01-31T02:27:02.264Z,0.01
2018-01-31T02:28:02.532Z,0.01
2018-01-31T02:29:04.883Z,0.01
2018-01-31T02:30:04.184Z,0
2018-01-31T02:31:04.793Z,0.01
2018-01-31T02:32:05.216Z,0
2018-01-31T02:33:06.842Z,0
2018-01-31T02:34:07.253Z,0.06
2018-01-31T02:35:08.312Z,0
2018-01-31T02:36:09.783Z,0.01
2018-01-31T02:37:10.232Z,0.01
2018-01-31T02:38:11.500Z,0.01
2018-01-31T02:39:11.695Z,0.01
2018-01-31T02:40:13.471Z,0.01
2018-01-31T02:41:14.597Z,0
2018-01-31T02:42:15.124Z,0
2018-01-31T02:43:16.349Z,0
2018-01-31T02:44:18.695Z,0
2018-01-31T02:45:18.501Z,0.01
2018-01-31T02:46:20.557Z,0
2018-01-31T02:47:21.103Z,0.06
2018-01-31T02:48:21.446Z,0.01
2018-01-31T02:49:22.227Z,0.01
2018-01-31T02:50:24.337Z,0
2018-01-31T02:51:25.371Z,0
2018-01-31T02:52:25.213Z,0.06
2018-01-31T02:53:27.131Z,0
2018-01-31T02:54:28.025Z,0.01
2018-01-31T02:55:29.110Z,0
2018-01-31T02:56:29.622Z,0.07
2018-01-31T02:57:30.973Z,0
2018-01-31T02:58:32.538Z,0.06
2018-01-31T02:59:32.641Z,0.03
2018-01-31T03:00:33.337Z,0.01
2018-01-31T03:01:34.411Z,0
2018-01-31T03:02:36.410Z,0
2018-01-31T03:03:36.615Z,0.03
2018-01-31T03:04:37.273Z,0.06
2018-01-31T03:05:38.407Z,0.07
2018-01-31T03:06:40.029Z,0.03
2018-01-31T03:07:39.675Z,0.01
2018-01-31T03:08:41.569Z,0.01
2018-01-31T03:09:42.777Z,0.07
2018-01-31T03:10:43.207Z,0.06
2018-01-31T03:11:45.373Z,0.03
2018-01-31T03:12:46.206Z,0.03
2018-01-31T03:13:46.521Z,0.12
2018-01-31T03:14:47.324Z,0.03
2018-01-31T03:15:47.715Z,0.07
2018-01-31T03:16:50.795Z,0.03
2018-01-31T03:17:51.133Z,0.01
2018-01-31T03:18:50.621Z,0
2018-01-31T03:19:52.247Z,0
2018-01-31T03:20:52.717Z,0.06
2018-01-31T03:21:54.201Z,0
2018-01-31T03:22:54.622Z,0
2018-01-31T03:23:56.614Z,0
2018-01-31T03:24:57.603Z,0
2018-01-31T03:26:01.495Z,0
2018-01-31T03:27:00.529Z,0
2018-01-31T03:28:00.847Z,0.06
2018-01-31T03:29:01.676Z,0.07
2018-01-31T03:30:02.569Z,0.06
2018-01-31T03:31:04.659Z,0
2018-01-31T03:32:05.468Z,0.03
2018-01-31T03:33:06.230Z,0.07
2018-01-31T03:34:06.037Z,0
2018-01-31T03:35:07.277Z,0.07
2018-01-31T03:36:08.633Z,0.07
2018-01-31T03:37:09.466Z,0.07
2018-01-31T03:38:10.043Z,0.06
2018-01-31T03:39:11.461Z,0.01
2018-01-31T03:40:12.529Z,0.01
2018-01-31T03:41:13.534Z,0.06
2018-01-31T03:42:16.001Z,0
2018-01-31T03:43:14.885Z,0
2018-01-31T03:44:15.837Z,0.07
2018-01-31T03:45:17.775Z,0
2018-01-31T03:46:18.165Z,0
2018-01-31T03:47:21.028Z,0.06
2018-01-31T03:48:20.304Z,0
2018-01-31T03:49:21.507Z,0.03
2018-01-31T03:50:23.334Z,0
2018-01-31T03:51:25.323Z,0.06
2018-01-31T03:52:25.487Z,0.01
2018-01-31T03:53:25.471Z,0
2018-01-31T03:54:26.111Z,0.03
2018-01-31T03:55:27.043Z,0
2018-01-31T03:56:28.744Z,0.06
2018-01-31T03:57:29.510Z,0
2018-01-31T03:58:30.705Z,0.01
2018-01-31T03:59:31.423Z,0.01
2018-01-31T04:00:31.745Z,0.01
2018-01-31T04:01:33.186Z,0
2018-01-31T04:02:36.822Z,0
2018-01-31T04:03:35.342Z,0
2018-01-31T04:04:35.672Z,0
2018-01-31T04:05:39.565Z,0.03
2018-01-31T04:06:38.564Z,0
2018-01-31T04:07:39.459Z,0.07
2018-01-31T04:08:39.944Z,0
2018-01-31T04:09:43.395Z,0.07
2018-01-31T04:10:42.747Z,0.03
2018-01-31T04:11:43.959Z,0.03
2018-01-31T04:12:46.635Z,0.01
2018-01-31T04:13:45.620Z,0
2018-01-31T04:14:46.765Z,0
2018-01-31T04:15:47.091Z,0
2018-01-31T04:16:49.036Z,0.01
2018-01-31T04:17:50.706Z,0
2018-01-31T04:18:50.286Z,0.03
2018-01-31T04:19:53.570Z,0.07
2018-01-31T04:20:53.465Z,0.03
2018-01-31T04:21:53.162Z,0
2018-01-31T04:22:54.518Z,0.03
2018-01-31T04:23:54.935Z,0.07
2018-01-31T04:24:56.356Z,0.03
2018-01-31T04:25:57.014Z,0.03
2018-01-31T04:26:57.973Z,0.07
2018-01-31T04:28:00.127Z,0.07
2018-01-31T04:28:59.965Z,0.03
2018-01-31T04:30:02.390Z,0
2018-01-31T04:31:03.650Z,0.01
2018-01-31T04:32:04.700Z,0
2018-01-31T04:33:05.512Z,0.01
2018-01-31T04:34:06.996Z,0.03
2018-01-31T04:35:05.939Z,0.06
2018-01-31T04:36:07.460Z,0.03
2018-01-31T04:37:07.935Z,0.01
2018-01-31T04:38:10.117Z,0.01
2018-01-31T04:39:11.203Z,0.06
2018-01-31T04:40:12.381Z,0.03
2018-01-31T04:41:12.731Z,0.07
2018-01-31T04:42:13.897Z,0.07
2018-01-31T04:43:15.240Z,0.07
2018-01-31T04:44:16.134Z,0.06
2018-01-31T04:45:18.003Z,0
2018-01-31T04:46:18.462Z,0.01
2018-01-31T04:47:18.770Z,0.06
2018-01-31T04:48:20.285Z,0
2018-01-31T04:49:21.731Z,0.01
2018-01-31T04:50:22.256Z,0
2018-01-31T04:51:23.199Z,0
2018-01-31T04:52:24.155Z,0
2018-01-31T04:53:25.047Z,0
2018-01-31T04:54:27.498Z,0
2018-01-31T04:55:30.101Z,0.07
2018-01-31T04:56:29.029Z,0.01
2018-01-31T04:57:29.941Z,0.01
2018-01-31T04:58:32.211Z,0
2018-01-31T04:59:32.451Z,0
2018-01-31T05:00:34.245Z,0.01
2018-01-31T05:01:33.199Z,0
2018-01-31T05:02:34.895Z,0.01
2018-01-31T05:03:37.328Z,0.01
2018-01-31T05:04:36.171Z,0.06
2018-01-31T05:05:37.624Z,0.03
2018-01-31T05:06:38.597Z,0.03
2018-01-31T05:07:39.707Z,0.07
2018-01-31T05:08:40.281Z,0.03
2018-01-31T05:09:42.198Z,0.03
2018-01-31T05:10:41.722Z,0.06
2018-01-31T05:11:43.415Z,0.06
2018-01-31T05:12:45.116Z,0.04
2018-01-31T05:13:45.936Z,0.07
2018-01-31T05:14:46.240Z,0.07
2018-01-31T05:15:48.031Z,0.04
2018-01-31T05:16:48.952Z,0
2018-01-31T05:17:49.261Z,0.07
2018-01-31T05:18:50.760Z,0
2018-01-31T05:19:51.253Z,0
2018-01-31T05:20:52.285Z,0.03
2018-01-31T05:21:53.399Z,0.03
2018-01-31T05:22:55.026Z,0.06
2018-01-31T05:23:56.202Z,0.03
2018-01-31T05:24:56.790Z,0.03
2018-01-31T05:25:57.761Z,0.07
2018-01-31T05:26:58.911Z,0.07
2018-01-31T05:27:59.793Z,0.07
2018-01-31T05:29:02.316Z,0.07
2018-01-31T05:30:01.149Z,0.04
2018-01-31T05:31:03.413Z,0
2018-01-31T05:32:03.833Z,0
2018-01-31T05:33:05.761Z,0
2018-01-31T05:34:05.872Z,0
2018-01-31T05:35:07.813Z,0.01
2018-01-31T05:36:07.518Z,0.07
2018-01-31T05:37:10.130Z,0.07
2018-01-31T05:38:09.849Z,0.04
2018-01-31T05:39:10.102Z,0.03
2018-01-31T05:40:11.740Z,0.07
2018-01-31T05:41:13.191Z,0
2018-01-31T05:42:14.828Z,0.04
2018-01-31T05:43:15.245Z,0.07
2018-01-31T05:44:16.300Z,0
2018-01-31T05:45:16.937Z,0.07
2018-01-31T05:46:17.941Z,0.01
2018-01-31T05:47:19.163Z,0.01
2018-01-31T05:48:20.175Z,0.03
2018-01-31T05:49:21.391Z,0.03
2018-01-31T05:50:20.716Z,0
2018-01-31T05:51:22.244Z,0.04
2018-01-31T05:52:22.824Z,0.07
2018-01-31T05:55:00.955Z,0.03
2018-01-31T05:56:01.133Z,0.07
2018-01-31T05:57:01.208Z,0.03
2018-01-31T05:58:03.886Z,0.07
2018-01-31T05:59:04.124Z,0.07
2018-01-31T06:00:05.970Z,0.07
2018-01-31T06:01:07.605Z,0.07
2018-01-31T06:02:44.875Z,0.06
2018-01-31T06:03:07.804Z,0.03
2018-01-31T06:04:09.340Z,0.03
2018-01-31T06:05:10.648Z,0.06
2018-01-31T06:06:11.399Z,0.07
2018-01-31T06:07:11.525Z,0.12
2018-01-31T06:08:11.827Z,0.03
2018-01-31T06:09:12.869Z,0.07
2018-01-31T06:10:15.319Z,0.04
2018-01-31T06:11:14.616Z,0.04
2018-01-31T06:12:15.757Z,0.07
2018-01-31T06:13:17.972Z,0.07
2018-01-31T06:14:17.927Z,0.07
2018-01-31T06:15:19.051Z,0.07
2018-01-31T06:16:20.396Z,0.07
2018-01-31T06:17:20.578Z,0.12
2018-01-31T06:18:24.856Z,0.07
2018-01-31T06:19:23.213Z,0.03
2018-01-31T06:20:26.207Z,0.07
2018-01-31T06:21:26.758Z,0.04
2018-01-31T06:22:26.828Z,0.07
2018-01-31T06:23:28.018Z,0.03
2018-01-31T06:24:29.457Z,0.07
2018-01-31T06:25:29.784Z,0.04
2018-01-31T06:26:30.291Z,0.03
2018-01-31T06:27:31.257Z,0.07
2018-01-31T06:28:32.818Z,0.07
2018-01-31T06:29:33.883Z,0.07
2018-01-31T06:30:35.660Z,0.06
2018-01-31T06:31:35.140Z,0.03
2018-01-31T06:32:36.424Z,0.03
2018-01-31T06:33:38.403Z,0.03
2018-01-31T06:34:38.188Z,0.06
2018-01-31T06:35:40.102Z,0.01
2018-01-31T06:36:41.774Z,0.06
2018-01-31T06:37:40.966Z,0.04
2018-01-31T06:38:43.136Z,0.03
2018-01-31T06:39:43.794Z,0.03
2018-01-31T06:40:44.196Z,0.03
2018-01-31T06:41:44.806Z,0.03
2018-01-31T06:42:46.371Z,0.07
2018-01-31T06:43:46.961Z,0.03
2018-01-31T06:44:48.966Z,0.06
2018-01-31T06:45:49.787Z,0.07
2018-01-31T06:46:49.787Z,0.07
2018-01-31T06:47:50.678Z,0.03
2018-01-31T06:48:52.327Z,0.03
2018-01-31T06:49:52.840Z,0.01
2018-01-31T06:50:54.276Z,0
2018-01-31T06:51:54.447Z,0.01
2018-01-31T06:52:56.180Z,0
2018-01-31T06:53:56.887Z,0
2018-01-31T06:54:58.443Z,0
2018-01-31T06:56:01.815Z,0
2018-01-31T06:57:00.234Z,0.07
2018-01-31T06:58:01.917Z,0
2018-01-31T06:59:02.239Z,0.06
2018-01-31T07:00:04.145Z,0.06
2018-01-31T07:01:04.627Z,0.01
2018-01-31T07:02:05.093Z,0
2018-01-31T07:03:08.352Z,0
2018-01-31T07:04:07.337Z,0.01
2018-01-31T07:05:08.892Z,0
2018-01-31T07:06:10.819Z,0
2018-01-31T07:07:14.292Z,0.01
2018-01-31T07:08:13.663Z,0.06
2018-01-31T07:09:13.166Z,0
2018-01-31T07:10:14.339Z,0.07
2018-01-31T07:11:17.016Z,0.03
2018-01-31T07:12:16.282Z,0
2018-01-31T07:13:16.865Z,0.01
2018-01-31T07:14:18.017Z,0.07
2018-01-31T07:15:19.844Z,0
2018-01-31T07:16:20.457Z,0.07
2018-01-31T07:17:21.213Z,0.07
2018-01-31T07:18:21.837Z,0.01
2018-01-31T07:19:23.120Z,0.07
2018-01-31T07:20:24.991Z,0.03
2018-01-31T07:21:26.087Z,0.03
2018-01-31T07:22:26.943Z,0.03
2018-01-31T07:23:27.570Z,0.03
2018-01-31T07:24:28.625Z,0.07
2018-01-31T07:25:29.074Z,0
2018-01-31T07:26:32.094Z,0.04
2018-01-31T07:27:31.485Z,0.03
2018-01-31T07:28:32.457Z,0.03
2018-01-31T07:29:34.509Z,0.01
2018-01-31T07:30:36.300Z,0.01
2018-01-31T07:31:36.217Z,0.04
2018-01-31T07:32:35.880Z,0.07
2018-01-31T07:33:37.783Z,0
2018-01-31T07:34:38.207Z,0.07
2018-01-31T07:35:39.292Z,0
2018-01-31T07:36:41.093Z,0.04
2018-01-31T07:37:43.201Z,0.07
2018-01-31T07:38:41.598Z,0.03
2018-01-31T07:39:42.600Z,0.04
2018-01-31T07:40:44.453Z,0.07
2018-01-31T07:41:46.262Z,0.07
2018-01-31T07:42:51.041Z,0.07
2018-01-31T07:43:48.670Z,0.04
2018-01-31T07:44:50.533Z,0.07
2018-01-31T07:45:49.887Z,0
2018-01-31T07:46:52.059Z,0.06
2018-01-31T07:47:51.119Z,0
2018-01-31T07:48:52.117Z,0
2018-01-31T07:49:53.473Z,0.01
2018-01-31T07:50:54.854Z,0
2018-01-31T07:51:55.325Z,0.03
2018-01-31T07:52:55.863Z,0.06
2018-01-31T07:53:57.745Z,0.07
2018-01-31T07:54:57.775Z,0
2018-01-31T07:55:59.311Z,0
2018-01-31T07:57:00.558Z,0.01
2018-01-31T07:58:01.661Z,0.06
2018-01-31T07:59:02.884Z,0.06
2018-01-31T08:00:02.594Z,0.01
2018-01-31T08:01:06.577Z,0.01
2018-01-31T08:02:07.119Z,0.06
2018-01-31T08:03:08.120Z,0.06
2018-01-31T08:04:09.137Z,0
2018-01-31T08:05:09.292Z,0.01
2018-01-31T08:06:09.730Z,0.06
2018-01-31T08:07:11.136Z,0.03
2018-01-31T08:08:11.381Z,0.01
2018-01-31T08:09:12.633Z,0.04
2018-01-31T08:10:16.673Z,0.07
2018-01-31T08:11:13.636Z,0.03
2018-01-31T08:12:15.737Z,0.03
2018-01-31T08:13:16.565Z,0.07
2018-01-31T08:14:17.212Z,0.03
2018-01-31T08:15:18.829Z,0.03
2018-01-31T08:16:19.012Z,0.06
2018-01-31T08:17:22.475Z,0.07
2018-01-31T08:18:21.030Z,0.07
2018-01-31T08:19:22.986Z,0.07
2018-01-31T08:20:24.666Z,0.03
2018-01-31T08:21:25.883Z,0
2018-01-31T08:22:26.233Z,0.03
2018-01-31T08:23:27.541Z,0.07
2018-01-31T08:24:28.086Z,0.03
2018-01-31T08:25:31.040Z,0.03
2018-01-31T08:26:30.521Z,0
2018-01-31T08:27:31.011Z,0.04
2018-01-31T08:28:32.529Z,0
2018-01-31T08:29:33.133Z,0.01
2018-01-31T08:30:34.716Z,0.06
2018-01-31T08:31:35.429Z,0
2018-01-31T08:32:37.041Z,0.07
2018-01-31T08:33:37.257Z,0.07
2018-01-31T08:34:40.483Z,0.03
2018-01-31T08:35:39.369Z,0.03
2018-01-31T08:36:40.708Z,0.03
2018-01-31T08:37:41.819Z,0.04
2018-01-31T08:41:04.744Z,0.07
2018-01-31T08:41:52.312Z,0.06
2018-01-31T08:42:53.533Z,0.04
2018-01-31T08:43:54.021Z,0.07
2018-01-31T08:44:55.450Z,0.07
2018-01-31T08:45:56.161Z,0
2018-01-31T08:46:57.025Z,0
2018-01-31T08:47:58.850Z,0.01
2018-01-31T08:48:59.015Z,0.01
2018-01-31T08:50:00.502Z,0
2018-01-31T08:51:00.450Z,0.01
2018-01-31T08:52:01.521Z,12.01
2018-01-31T08:53:03.168Z,12.58
2018-01-31T08:54:03.675Z,12.23
2018-01-31T08:55:06.071Z,12.76
2018-01-31T08:56:06.267Z,12.87
2018-01-31T08:57:07.309Z,12.13
2018-01-31T08:58:14.106Z,12.93
2018-01-31T08:59:10.265Z,12.86
2018-01-31T09:00:10.240Z,12.77
2018-01-31T09:01:11.701Z,12.83
2018-01-31T09:02:36.228Z,12.68
2018-01-31T09:03:14.021Z,12.74
2018-01-31T09:04:16.404Z,11.83
2018-01-31T09:05:15.728Z,0
2018-01-31T09:06:16.366Z,0.01
2018-01-31T09:07:16.827Z,0
2018-01-31T09:08:18.295Z,0.01
2018-01-31T09:09:19.989Z,0
2018-01-31T09:10:25.689Z,0
2018-01-31T09:11:21.480Z,0
2018-01-31T09:12:23.113Z,0
2018-01-31T09:13:24.511Z,0.01
2018-01-31T09:14:23.711Z,0
2018-01-31T09:15:26.051Z,0.01
2018-01-31T09:16:26.176Z,0
2018-01-31T09:17:29.241Z,0
2018-01-31T09:18:30.177Z,0
2018-01-31T09:19:32.716Z,0
2018-01-31T09:20:30.349Z,0.01
2018-01-31T09:21:31.334Z,0.01
2018-01-31T09:22:32.356Z,0
2018-01-31T09:23:35.800Z,0
2018-01-31T09:24:34.352Z,0
2018-01-31T09:25:35.205Z,0.01
2018-01-31T09:26:36.357Z,0
2018-01-31T09:27:38.526Z,0
2018-01-31T09:28:38.537Z,0
2018-01-31T09:29:39.739Z,0
2018-01-31T09:30:41.992Z,0
2018-01-31T09:31:41.058Z,0.01
2018-01-31T09:32:41.798Z,0
2018-01-31T09:33:44.786Z,0.01
2018-01-31T09:34:44.778Z,0
2018-01-31T09:35:44.864Z,0
2018-01-31T09:36:45.889Z,0
2018-01-31T09:37:47.653Z,0
2018-01-31T09:38:49.013Z,0
2018-01-31T09:39:49.364Z,0.01
2018-01-31T09:40:50.908Z,0
2018-01-31T09:41:52.508Z,0.01
2018-01-31T09:42:53.209Z,0
2018-01-31T09:43:54.202Z,0
2018-01-31T09:44:57.337Z,0
2018-01-31T09:45:57.538Z,0.01
2018-01-31T09:46:57.507Z,0
2018-01-31T09:47:57.977Z,0.01
2018-01-31T09:48:59.797Z,0
2018-01-31T09:49:59.382Z,0
2018-01-31T09:51:01.729Z,0
2018-01-31T09:52:01.779Z,0.01
2018-01-31T09:53:07.193Z,0.01
2018-01-31T09:54:02.999Z,0.01
2018-01-31T09:55:03.516Z,0
2018-01-31T09:56:05.731Z,0.01
2018-01-31T09:57:06.179Z,0
2018-01-31T09:58:07.912Z,0.01
2018-01-31T09:59:08.690Z,0
2018-01-31T10:00:10.972Z,0
2018-01-31T10:01:11.849Z,0
2018-01-31T10:02:11.990Z,0
2018-01-31T10:03:14.221Z,0
2018-01-31T10:04:15.985Z,0.01
2018-01-31T10:05:15.675Z,0
2018-01-31T10:06:15.562Z,0
2018-01-31T10:07:16.664Z,0
2018-01-31T10:08:18.287Z,0.01
2018-01-31T10:09:19.377Z,0
2018-01-31T10:10:20.972Z,0
2018-01-31T10:11:21.377Z,0.01
2018-01-31T10:12:23.521Z,0
2018-01-31T10:13:23.389Z,0
2018-01-31T10:14:26.162Z,0.01
2018-01-31T10:15:27.655Z,0
2018-01-31T10:16:26.856Z,0
2018-01-31T10:17:27.413Z,0.01
2018-01-31T10:18:28.190Z,0
2018-01-31T10:19:29.836Z,0
2018-01-31T10:20:29.934Z,0.01
2018-01-31T10:21:30.828Z,0
2018-01-31T10:22:33.185Z,0.01
2018-01-31T10:23:34.227Z,0
2018-01-31T10:24:34.503Z,0
2018-01-31T10:25:35.371Z,0
2018-01-31T10:26:36.904Z,0
2018-01-31T10:27:42.287Z,0
2018-01-31T10:28:38.769Z,0.01
2018-01-31T10:29:40.323Z,0.01
2018-01-31T10:30:41.023Z,0.01
2018-01-31T10:31:41.890Z,0.01
2018-01-31T10:32:42.664Z,0.01
2018-01-31T10:33:44.166Z,0
2018-01-31T10:34:46.233Z,0
2018-01-31T10:35:45.976Z,0
2018-01-31T10:36:46.089Z,0.03
2018-01-31T10:37:47.693Z,0.03
2018-01-31T10:38:49.760Z,0
2018-01-31T10:39:50.362Z,0
2018-01-31T10:40:50.519Z,0.04
2018-01-31T10:41:52.432Z,0.01
2018-01-31T10:42:52.225Z,0
2018-01-31T10:43:53.882Z,0
2018-01-31T10:44:55.078Z,0
2018-01-31T10:45:54.911Z,0
2018-01-31T10:46:56.923Z,0
2018-01-31T10:47:57.028Z,0
2018-01-31T10:48:57.631Z,0
2018-01-31T10:50:00.571Z,0
2018-01-31T10:51:00.303Z,0
2018-01-31T10:52:02.257Z,0
2018-01-31T10:53:01.665Z,0
2018-01-31T10:57:29.193Z,0
2018-01-31T10:57:31.806Z,0
2018-01-31T10:58:33.036Z,0
2018-01-31T10:59:34.189Z,0
2018-01-31T11:00:35.182Z,0
2018-01-31T11:01:36.515Z,0
2018-01-31T11:02:37.127Z,0.01
2018-01-31T11:03:38.927Z,0
2018-01-31T11:04:39.560Z,0
2018-01-31T11:05:41.331Z,0.01
2018-01-31T11:06:41.878Z,0
2018-01-31T11:07:42.537Z,0.01
2018-01-31T11:08:45.297Z,0
2018-01-31T11:09:46.005Z,0
2018-01-31T11:10:45.927Z,0.01
2018-01-31T11:11:46.497Z,0.01
2018-01-31T11:12:47.123Z,0.01
2018-01-31T11:13:48.336Z,0.01
2018-01-31T11:14:49.932Z,0
2018-01-31T11:15:50.325Z,0
2018-01-31T11:16:51.102Z,0
2018-01-31T11:17:52.502Z,0.04
2018-01-31T11:18:54.002Z,0.01
2018-01-31T11:19:54.268Z,0
2018-01-31T11:20:55.706Z,0.03
2018-01-31T11:21:55.920Z,0
2018-01-31T11:22:58.005Z,0
2018-01-31T11:23:59.663Z,12.9
2018-01-31T11:25:01.535Z,13.43
2018-01-31T11:26:01.370Z,13.21
2018-01-31T11:27:02.716Z,11.44
2018-01-31T11:28:51.001Z,11.61
2018-01-31T11:29:03.091Z,13.33
2018-01-31T11:30:04.674Z,13.46
2018-01-31T11:31:06.082Z,13.43
2018-01-31T11:32:06.342Z,13.42
2018-01-31T11:33:08.872Z,13.39
2018-01-31T11:34:14.151Z,13.36
2018-01-31T11:35:10.705Z,13.4
2018-01-31T11:36:13.031Z,13.4
2018-01-31T11:37:11.478Z,13.37
2018-01-31T11:38:13.145Z,13.33
2018-01-31T11:39:14.303Z,13.61
2018-01-31T11:40:14.500Z,13.36
2018-01-31T11:41:15.904Z,13.56
2018-01-31T11:42:16.405Z,13.64
2018-01-31T11:43:35.214Z,13.37
2018-01-31T11:44:18.533Z,13.33
2018-01-31T11:45:18.585Z,13.56
2018-01-31T11:46:20.419Z,13.33
2018-01-31T11:47:20.551Z,13.33
2018-01-31T11:48:23.943Z,13.34
2018-01-31T11:50:05.441Z,13.36
2018-01-31T11:50:23.909Z,13.37
2018-01-31T11:51:31.249Z,13.37
2018-01-31T11:52:26.432Z,13.33
2018-01-31T11:53:28.421Z,13.36
2018-01-31T11:54:28.328Z,13.33
2018-01-31T11:55:29.601Z,13.37
2018-01-31T11:56:31.187Z,13.36
2018-01-31T11:57:31.245Z,13.37
2018-01-31T11:58:32.746Z,13.37
2018-01-31T11:59:33.487Z,13.36
2018-01-31T12:00:38.181Z,13.36
2018-01-31T12:01:35.469Z,13.31
2018-01-31T12:02:36.369Z,13.34
2018-01-31T12:03:37.514Z,13.34
2018-01-31T12:04:38.509Z,13.33
2018-01-31T12:05:39.034Z,13.56
2018-01-31T12:06:40.396Z,13.34
2018-01-31T12:07:41.061Z,13.33
2018-01-31T12:08:43.441Z,13.31
2018-01-31T12:09:44.828Z,13.3
2018-01-31T12:11:50.366Z,13.27
2018-01-31T12:11:59.166Z,13.28
2018-01-31T12:12:55.381Z,13.52
2018-01-31T12:13:56.128Z,13.27
2018-01-31T12:14:56.453Z,13.31
2018-01-31T12:15:58.338Z,13.24
2018-01-31T12:17:01.014Z,13.52
2018-01-31T12:18:02.145Z,13.27
2018-01-31T12:19:01.745Z,13.28
2018-01-31T12:20:03.877Z,13.5
2018-01-31T12:21:04.508Z,13.34
2018-01-31T12:22:04.624Z,13.3
2018-01-31T12:23:06.498Z,13.27
2018-01-31T12:24:06.506Z,13.28
2018-01-31T12:25:07.642Z,13.28
2018-01-31T12:26:08.513Z,13.33
2018-01-31T12:27:11.726Z,13.24
2018-01-31T12:28:11.815Z,13.28
2018-01-31T12:29:11.735Z,13.28
2018-01-31T12:30:11.805Z,13.28
2018-01-31T12:31:14.368Z,13.28
2018-01-31T12:32:15.553Z,13.27
2018-01-31T12:33:15.501Z,13.3
2018-01-31T12:34:16.245Z,13.28
2018-01-31T12:35:18.764Z,13.28
2018-01-31T12:36:17.910Z,13.3
2018-01-31T12:37:19.330Z,13.28
2018-01-31T12:38:20.936Z,13.52
2018-01-31T12:39:26.387Z,13.24
2018-01-31T12:40:27.289Z,13.24
2018-01-31T12:41:27.408Z,13.24
2018-01-31T12:42:24.527Z,13.27
2018-01-31T12:43:26.488Z,13.24
2018-01-31T12:44:27.383Z,13.28
2018-01-31T12:45:27.813Z,13.34
2018-01-31T12:46:29.855Z,13.33
2018-01-31T12:47:30.022Z,13.31
2018-01-31T12:48:30.450Z,13.27
2018-01-31T12:50:13.145Z,13.28
2018-01-31T12:50:32.290Z,13.36
2018-01-31T12:51:32.798Z,13.26
2018-01-31T12:52:34.991Z,13.49
2018-01-31T12:53:34.992Z,13.27
2018-01-31T12:54:35.925Z,13.3
2018-01-31T12:55:36.521Z,13.3
2018-01-31T12:56:38.138Z,13.27
2018-01-31T12:57:39.814Z,13.27
2018-01-31T12:58:40.937Z,13.27
2018-01-31T12:59:42.675Z,13.33
2018-01-31T13:00:43.759Z,13.52
2018-01-31T13:01:43.797Z,13.27
2018-01-31T13:02:46.878Z,13.28
2018-01-31T13:03:45.389Z,13.3
2018-01-31T13:04:46.466Z,13.28
2018-01-31T13:05:47.890Z,13.5
2018-01-31T13:06:52.676Z,13.27
2018-01-31T13:07:53.286Z,13.27
2018-01-31T13:08:56.266Z,13.34
2018-01-31T13:09:52.028Z,13.3
2018-01-31T13:10:52.171Z,13.24
2018-01-31T13:11:53.259Z,13.33
2018-01-31T13:12:56.769Z,13.37
2018-01-31T13:13:55.551Z,13.37
2018-01-31T13:14:57.194Z,13.31
2018-01-31T13:15:57.714Z,13.3
2018-01-31T13:16:59.598Z,13.31
2018-01-31T13:18:00.628Z,13.28
2018-01-31T13:18:59.937Z,13.26
2018-01-31T13:20:00.426Z,13.24
2018-01-31T13:21:02.385Z,13.26
2018-01-31T13:22:02.766Z,13.26
2018-01-31T13:23:07.137Z,13.24
2018-01-31T13:24:04.896Z,13.26
2018-01-31T13:25:05.772Z,13.24
2018-01-31T13:26:07.277Z,13.26
2018-01-31T13:27:08.220Z,13.24
2018-01-31T13:28:10.073Z,13.24
2018-01-31T13:29:11.461Z,13.24
2018-01-31T13:30:11.236Z,13.27
2018-01-31T13:31:12.331Z,13.3
2018-01-31T13:32:13.289Z,13.26
2018-01-31T13:33:14.876Z,13.27
2018-01-31T13:34:16.425Z,13.27
2018-01-31T13:35:16.547Z,13.27
2018-01-31T13:36:18.340Z,13.27
2018-01-31T13:37:19.762Z,13.3
2018-01-31T13:38:20.781Z,13.3
2018-01-31T13:39:22.438Z,13.21
2018-01-31T13:40:23.098Z,13.27
2018-01-31T13:41:23.811Z,13.36
2018-01-31T13:42:24.371Z,13.27
2018-01-31T13:43:25.896Z,13.28
2018-01-31T13:44:28.128Z,13.24
2018-01-31T13:45:29.916Z,13.26
2018-01-31T13:46:28.577Z,13.28
2018-01-31T13:47:29.953Z,13.28
2018-01-31T13:48:31.051Z,13.3
2018-01-31T13:49:31.584Z,13.28
2018-01-31T13:50:31.927Z,13.3
2018-01-31T13:51:34.304Z,13.33
2018-01-31T13:52:34.668Z,13.36
2018-01-31T13:53:36.734Z,13.36
2018-01-31T13:54:35.738Z,13.34
2018-01-31T13:55:37.485Z,13.4
2018-01-31T13:56:38.432Z,13.39
2018-01-31T13:57:38.811Z,13.49
2018-01-31T13:58:39.993Z,13.59
2018-01-31T13:59:41.144Z,13.48
2018-01-31T14:00:43.604Z,13.43
2018-01-31T14:01:43.093Z,13.42
2018-01-31T14:02:44.159Z,13.42
2018-01-31T14:03:46.308Z,13.5
2018-01-31T14:04:46.174Z,13.45
2018-01-31T14:05:47.234Z,13.45
2018-01-31T14:06:48.893Z,13.5
2018-01-31T14:07:49.977Z,13.43
2018-01-31T14:08:50.363Z,13.4
2018-01-31T14:09:51.796Z,13.39
2018-01-31T14:10:52.582Z,13.4
2018-01-31T14:11:52.952Z,13.46
2018-01-31T14:12:53.982Z,13.46
2018-01-31T14:13:56.891Z,13.42
2018-01-31T14:14:56.048Z,13.43
2018-01-31T14:15:57.057Z,13.33
2018-01-31T14:16:58.410Z,13.36
2018-01-31T14:17:58.621Z,13.42
2018-01-31T14:19:00.769Z,13.42
2018-01-31T14:20:01.726Z,13.46
2018-01-31T14:21:03.167Z,13.49
2018-01-31T14:22:03.991Z,13.48
2018-01-31T14:23:04.363Z,13.45
2018-01-31T14:24:07.163Z,13.48
2018-01-31T14:25:06.790Z,13.52
2018-01-31T14:26:07.057Z,13.58
2018-01-31T14:27:08.649Z,13.58
2018-01-31T14:28:10.718Z,13.58
2018-01-31T14:29:11.874Z,13.56
2018-01-31T14:30:11.791Z,13.62
2018-01-31T14:31:12.400Z,13.61
2018-01-31T14:32:14.513Z,13.62
2018-01-31T14:33:16.360Z,13.72
2018-01-31T14:34:16.969Z,13.71
2018-01-31T14:35:18.602Z,13.65
2018-01-31T14:36:17.742Z,13.62
2018-01-31T14:37:18.270Z,13.67
2018-01-31T14:38:19.205Z,13.72
2018-01-31T14:39:20.621Z,13.62
2018-01-31T14:40:21.165Z,13.68
2018-01-31T14:41:23.095Z,13.7
2018-01-31T14:42:24.351Z,13.75
2018-01-31T14:43:26.713Z,13.68
2018-01-31T14:44:26.315Z,13.75
2018-01-31T14:45:27.111Z,13.77
2018-01-31T14:46:28.429Z,13.68
2018-01-31T14:47:28.816Z,13.71
2018-01-31T14:48:30.389Z,13.68
2018-01-31T14:49:32.140Z,13.68
2018-01-31T14:50:31.531Z,13.75
2018-01-31T14:51:33.869Z,13.78
2018-01-31T14:52:34.449Z,13.78
2018-01-31T14:53:37.311Z,13.71
2018-01-31T14:54:38.821Z,13.71
2018-01-31T14:55:38.741Z,13.72
2018-01-31T14:56:39.919Z,13.72
2018-01-31T14:57:42.856Z,13.7
2018-01-31T14:58:40.202Z,13.62
2018-01-31T14:59:43.116Z,13.65
2018-01-31T15:00:42.681Z,13.64
2018-01-31T15:01:43.760Z,13.64
2018-01-31T15:02:44.115Z,13.56
2018-01-31T15:03:44.669Z,13.56
2018-01-31T15:04:46.219Z,13.5
2018-01-31T15:05:47.810Z,13.52
2018-01-31T15:06:48.045Z,13.52
2018-01-31T15:07:49.712Z,13.45
2018-01-31T15:08:51.773Z,13.49
2018-01-31T15:09:51.501Z,13.43
2018-01-31T15:10:52.104Z,13.4
2018-01-31T15:11:54.089Z,13.4
2018-01-31T15:12:55.813Z,13.36
2018-01-31T15:13:55.968Z,0
2018-01-31T15:14:56.818Z,0.03
2018-01-31T15:15:58.093Z,0.03
2018-01-31T15:17:01.356Z,0.07
2018-01-31T15:17:59.847Z,0.13
2018-01-31T15:19:00.030Z,0.13
2018-01-31T15:20:01.979Z,0.03
2018-01-31T15:21:04.588Z,0
2018-01-31T15:22:05.242Z,0
2018-01-31T15:23:04.796Z,0
2018-01-31T15:24:06.057Z,0.04
2018-01-31T15:25:06.617Z,0.07
2018-01-31T15:26:07.591Z,0.03
2018-01-31T15:27:08.268Z,0.07
2018-01-31T15:28:08.689Z,0.07
2018-01-31T15:29:10.986Z,0.06
2018-01-31T15:30:11.855Z,0.03
2018-01-31T15:31:12.413Z,0.07
2018-01-31T15:32:13.460Z,0.03
2018-01-31T15:33:14.648Z,0.03
2018-01-31T15:34:15.751Z,0.07
2018-01-31T15:35:16.980Z,0.07
2018-01-31T15:36:17.811Z,0.03
2018-01-31T15:37:18.311Z,0.03
2018-01-31T15:38:20.881Z,0.07
2018-01-31T15:39:22.643Z,0.07
2018-01-31T15:40:22.959Z,0.03
2018-01-31T15:41:22.598Z,0.1
2018-01-31T15:42:24.279Z,0.07
2018-01-31T15:43:25.411Z,0.03